Time;durP1;ratioP1;P1;durP2;ratioP2;P2;SDS_P1;SDS_P2;PMS_P1;PMS_P2;Temp;Humidity;BMP_temperature;BMP_pressure;BME280_temperature;BME280_humidity;BME280_pressure;Samples;Min_cycle;Max_cycle;Signal;HPM_P1;HPM_P2
2022/03/26 00:00:12;;;;;;;15.63;5.13;;;;;;;9.59;29.30;94680.09;4969263;28;20206;-74
2022/03/26 00:02:41;;;;;;;8.55;5.28;;;;;;;9.54;29.55;94677.50;4960817;28;20324;-75
2022/03/26 00:05:07;;;;;;;8.52;4.68;;;;;;;9.42;29.71;94672.63;4958021;28;20465;-73
2022/03/26 00:07:32;;;;;;;11.05;5.35;;;;;;;9.45;29.45;94681.88;4957143;28;21008;-75
2022/03/26 00:09:57;;;;;;;9.38;4.68;;;;;;;9.48;29.21;94676.00;4962141;28;20039;-74
2022/03/26 00:12:23;;;;;;;11.15;5.95;;;;;;;9.25;29.38;94645.75;4958952;28;20240;-75
2022/03/26 00:14:48;;;;;;;10.70;5.22;;;;;;;9.36;29.38;94675.63;4954218;28;20999;-75
2022/03/26 00:17:14;;;;;;;13.07;5.90;;;;;;;8.98;29.61;94624.28;4961708;28;20027;-74
2022/03/26 00:19:40;;;;;;;10.52;5.93;;;;;;;9.24;29.90;94669.94;4969327;28;20540;-75
2022/03/26 00:22:06;;;;;;;8.07;5.15;;;;;;;9.35;29.70;94682.78;4960883;28;20743;-74
2022/03/26 00:24:31;;;;;;;13.05;6.68;;;;;;;9.16;29.61;94663.38;4966493;28;20054;-74
2022/03/26 00:26:57;;;;;;;8.32;5.20;;;;;;;9.18;29.68;94663.09;4976482;28;20133;-74
2022/03/26 00:29:22;;;;;;;14.38;5.22;;;;;;;9.29;29.50;94668.00;4966856;28;20074;-74
2022/03/26 00:31:47;;;;;;;8.43;5.30;;;;;;;9.13;29.80;94653.34;4960335;28;20494;-75
2022/03/26 00:34:13;;;;;;;8.40;5.60;;;;;;;9.20;29.74;94663.59;4962016;28;20130;-75
2022/03/26 00:36:40;;;;;;;9.38;5.93;;;;;;;9.35;29.85;94682.78;4959161;28;20019;-73
2022/03/26 00:39:06;;;;;;;10.52;5.75;;;;;;;9.23;30.14;94685.06;4967559;28;20026;-74
2022/03/26 00:41:32;;;;;;;10.13;5.57;;;;;;;8.80;30.18;94643.59;4958643;28;20169;-74
2022/03/26 00:43:58;;;;;;;10.43;6.03;;;;;;;9.06;29.93;94687.34;4961541;28;20143;-74
2022/03/26 00:46:24;;;;;;;9.07;5.15;;;;;;;8.99;30.23;94689.56;4961805;28;20505;-73
2022/03/26 00:48:51;;;;;;;10.43;6.00;;;;;;;9.04;30.07;94692.16;4959433;28;20406;-76
2022/03/26 00:51:16;;;;;;;8.05;5.03;;;;;;;8.96;30.19;94692.75;4962049;28;20084;-73
2022/03/26 00:53:43;;;;;;;12.70;5.45;;;;;;;8.94;30.20;94686.94;4958135;28;20038;-74
2022/03/26 00:56:08;;;;;;;9.82;5.35;;;;;;;8.90;30.50;94696.53;4964418;28;20170;-74
2022/03/26 00:58:34;;;;;;;12.13;5.53;;;;;;;8.81;30.45;94677.78;4986957;28;20054;-74
2022/03/26 01:00:59;;;;;;;9.73;5.90;;;;;;;8.41;30.43;94631.22;4962752;28;20254;-75
2022/03/26 01:03:24;;;;;;;9.90;5.95;;;;;;;8.99;30.51;94698.31;4969362;28;20527;-74
2022/03/26 01:05:50;;;;;;;13.35;5.88;;;;;;;8.70;30.59;94683.47;4961948;28;20034;-74
2022/03/26 01:08:16;;;;;;;8.80;5.53;;;;;;;8.55;30.72;94677.25;4968610;28;20402;-74
2022/03/26 01:10:45;;;;;;;7.75;5.60;;;;;;;8.48;30.90;94670.66;4961647;28;20038;-75
2022/03/26 01:13:12;;;;;;;9.63;5.47;;;;;;;8.73;30.80;94698.81;4965943;28;20493;-75
2022/03/26 01:15:37;;;;;;;9.85;5.93;;;;;;;8.55;30.97;94706.41;4965476;28;20533;-74
2022/03/26 01:18:03;;;;;;;9.07;6.00;;;;;;;8.49;30.75;94696.13;4982573;28;20026;-74
2022/03/26 01:20:29;;;;;;;11.68;5.93;;;;;;;8.56;30.75;94702.66;4966828;28;20053;-74
2022/03/26 01:22:55;;;;;;;10.43;5.63;;;;;;;8.43;31.04;94683.97;4963278;28;20084;-74
2022/03/26 01:25:21;;;;;;;14.15;6.07;;;;;;;8.63;30.91;94710.31;4965134;28;20030;-73
2022/03/26 01:27:46;;;;;;;9.15;5.38;;;;;;;8.42;31.13;94698.28;4967044;28;20085;-75
2022/03/26 01:30:13;;;;;;;10.90;6.05;;;;;;;8.27;31.27;94685.94;4964341;28;20041;-73
2022/03/26 01:32:38;;;;;;;10.23;5.63;;;;;;;8.44;31.15;94723.47;4962195;28;20505;-73
2022/03/26 01:35:04;;;;;;;15.38;6.25;;;;;;;8.18;31.37;94694.75;4967325;28;20188;-74
2022/03/26 01:37:30;;;;;;;13.05;6.35;;;;;;;8.07;31.65;94709.97;4963933;28;20508;-74
2022/03/26 01:39:55;;;;;;;8.60;5.70;;;;;;;8.00;31.92;94720.06;4960150;28;20066;-75
2022/03/26 01:42:21;;;;;;;15.27;4.82;;;;;;;7.82;32.28;94689.72;4979460;28;21016;-74
2022/03/26 01:44:54;;;;;;;11.38;6.85;;;;;;;7.80;32.63;94717.53;4963880;28;20093;-72
2022/03/26 01:47:20;;;;;;;12.60;5.40;;;;;;;7.68;32.70;94708.00;4964488;28;20559;-74
2022/03/26 01:49:45;;;;;;;8.52;5.65;;;;;;;7.57;32.82;94703.84;4962236;28;20038;-75
2022/03/26 01:52:12;;;;;;;9.32;6.20;;;;;;;7.73;32.89;94728.41;4959792;28;20046;-74
2022/03/26 01:54:39;;;;;;;8.73;5.38;;;;;;;7.32;32.79;94651.03;4961956;28;20105;-75
2022/03/26 01:57:05;;;;;;;11.82;5.20;;;;;;;7.68;32.78;94718.59;4957956;28;20583;-75
2022/03/26 01:59:32;;;;;;;8.38;5.28;;;;;;;7.63;33.12;94720.50;4963480;28;20446;-74
2022/03/26 02:01:57;;;;;;;11.55;5.28;;;;;;;7.58;33.23;94718.66;4956861;28;20042;-75
2022/03/26 02:04:23;;;;;;;11.68;5.82;;;;;;;7.42;33.13;94688.03;4960131;28;20045;-74
2022/03/26 02:06:48;;;;;;;10.45;6.28;;;;;;;7.43;32.85;94697.56;4966758;28;20042;-74
2022/03/26 02:09:15;;;;;;;12.05;5.35;;;;;;;7.67;32.92;94719.69;4963150;28;20192;-74
2022/03/26 02:11:47;;;;;;;12.15;5.97;;;;;;;7.70;32.63;94718.34;4966528;28;20673;-73
2022/03/26 02:14:14;;;;;;;9.98;5.82;;;;;;;7.66;32.56;94726.03;4959299;28;20030;-74
2022/03/26 02:16:42;;;;;;;8.60;5.75;;;;;;;7.39;32.95;94733.56;4962749;28;20532;-74
2022/03/26 02:19:09;;;;;;;11.52;5.85;;;;;;;7.51;32.88;94727.97;4967978;28;20042;-73
2022/03/26 02:21:37;;;;;;;10.07;5.18;;;;;;;7.59;32.84;94732.69;4968148;28;20065;-76
2022/03/26 02:24:05;;;;;;;11.77;5.28;;;;;;;7.52;32.89;94733.00;4962161;28;20547;-74
2022/03/26 02:26:31;;;;;;;10.18;5.38;;;;;;;7.53;32.93;94729.25;4963559;28;20568;-73
2022/03/26 02:29:09;;;;;;;11.13;5.97;;;;;;;7.54;32.61;94725.56;4961005;28;20039;-75
2022/03/26 02:31:36;;;;;;;8.40;4.82;;;;;;;7.66;32.48;94731.34;4980631;28;20039;-74
2022/03/26 02:34:02;;;;;;;8.95;4.88;;;;;;;7.55;32.57;94735.09;4962451;28;20180;-75
2022/03/26 02:36:28;;;;;;;9.80;5.07;;;;;;;7.41;32.34;94704.19;4965859;28;20026;-74
2022/03/26 02:38:53;;;;;;;11.43;6.10;;;;;;;7.64;32.66;94738.75;4963834;28;20041;-75
2022/03/26 02:41:19;;;;;;;13.38;6.20;;;;;;;7.72;32.16;94737.41;4957318;28;20641;-75
2022/03/26 02:43:44;;;;;;;10.88;5.75;;;;;;;7.53;32.52;94716.03;4965300;28;20425;-74
2022/03/26 02:46:09;;;;;;;8.75;5.38;;;;;;;7.51;32.46;94726.09;4957276;28;20042;-74
2022/03/26 02:48:35;;;;;;;10.90;6.50;;;;;;;7.57;32.75;94724.22;4964321;28;20634;-75
2022/03/26 02:51:01;;;;;;;8.63;4.88;;;;;;;7.53;32.94;94731.91;4978895;28;20034;-75
2022/03/26 02:53:27;;;;;;;8.70;5.13;;;;;;;7.51;32.87;94734.03;4971533;28;20101;-74
2022/03/26 02:55:52;;;;;;;10.15;5.55;;;;;;;7.50;32.49;94743.03;4963170;28;20035;-74
2022/03/26 02:58:18;;;;;;;11.35;5.55;;;;;;;7.58;32.38;94741.72;4960588;28;20393;-74
2022/03/26 03:00:43;;;;;;;9.45;5.28;;;;;;;7.59;32.30;94741.41;4965965;28;20751;-74
2022/03/26 03:03:09;;;;;;;8.65;5.38;;;;;;;7.55;32.35;94740.38;4968185;28;20045;-74
2022/03/26 03:05:36;;;;;;;13.13;5.30;;;;;;;7.58;32.41;94737.19;4960228;28;20030;-73
2022/03/26 03:08:02;;;;;;;10.15;5.50;;;;;;;7.60;32.32;94743.00;4956528;28;20066;-75
2022/03/26 03:10:28;;;;;;;12.82;5.38;;;;;;;7.56;32.47;94736.69;4953351;28;20127;-74
2022/03/26 03:12:54;;;;;;;9.05;5.55;;;;;;;7.57;32.31;94740.13;4965416;28;20576;-75
2022/03/26 03:15:20;;;;;;;8.98;5.28;;;;;;;7.48;32.65;94742.53;4966283;28;20031;-74
2022/03/26 03:17:47;;;;;;;7.82;5.47;;;;;;;7.35;32.76;94737.81;4966504;28;20290;-74
2022/03/26 03:20:13;;;;;;;10.77;5.28;;;;;;;7.44;32.68;94749.41;4960988;28;20449;-74
2022/03/26 03:22:39;;;;;;;9.55;5.85;;;;;;;7.06;32.48;94691.84;4966118;28;20041;-74
2022/03/26 03:25:05;;;;;;;9.85;5.45;;;;;;;7.49;32.66;94753.91;4963423;28;20456;-74
2022/03/26 03:27:32;;;;;;;7.20;5.00;;;;;;;7.19;32.75;94725.72;4967148;28;20030;-74
2022/03/26 03:29:57;;;;;;;10.38;5.47;;;;;;;7.18;32.90;94727.56;4963850;28;20033;-74
2022/03/26 03:32:22;;;;;;;9.60;5.55;;;;;;;7.07;32.79;94728.63;4967795;28;20078;-75
2022/03/26 03:34:48;;;;;;;11.50;4.95;;;;;;;6.64;33.16;94679.81;4959798;28;20404;-74
2022/03/26 03:37:14;;;;;;;11.95;6.40;;;;;;;7.05;33.16;94740.53;4966522;28;20137;-75
2022/03/26 03:39:45;;;;;;;10.07;5.32;;;;;;;7.17;32.96;94748.97;4960939;28;20062;-74
2022/03/26 03:42:11;;;;;;;11.50;5.05;;;;;;;7.19;32.76;94744.22;4979939;28;20019;-74
2022/03/26 03:44:37;;;;;;;9.60;5.68;;;;;;;7.19;32.63;94741.56;4981704;28;20501;-74
2022/03/26 03:47:03;;;;;;;9.98;6.53;;;;;;;7.23;32.49;94746.06;4955106;28;20376;-74
2022/03/26 03:49:31;;;;;;;11.32;5.40;;;;;;;7.12;32.55;94727.81;4965167;28;20501;-74
2022/03/26 03:51:57;;;;;;;9.18;4.95;;;;;;;7.01;32.65;94734.19;4956453;28;20042;-74
2022/03/26 03:54:23;;;;;;;13.30;5.47;;;;;;;7.17;32.56;94746.34;4961845;28;20030;-75
2022/03/26 03:56:48;;;;;;;8.80;5.18;;;;;;;7.20;32.67;94749.22;4967211;28;20513;-74
2022/03/26 03:59:14;;;;;;;10.13;4.88;;;;;;;7.28;32.80;94756.63;4958210;28;20046;-74
2022/03/26 04:01:39;;;;;;;9.93;5.35;;;;;;;7.27;32.88;94751.59;4964002;28;20050;-75
2022/03/26 04:04:04;;;;;;;7.18;4.88;;;;;;;7.05;33.09;94756.41;4956124;28;20141;-74
2022/03/26 04:06:30;;;;;;;11.35;5.50;;;;;;;6.75;33.23;94731.59;4962079;28;20121;-76
2022/03/26 04:08:55;;;;;;;10.73;5.75;;;;;;;6.82;33.41;94753.28;4959668;28;20050;-74
2022/03/26 04:11:21;;;;;;;10.48;5.95;;;;;;;6.77;33.72;94760.41;4963738;28;20041;-75
2022/03/26 04:13:46;;;;;;;8.82;5.35;;;;;;;6.76;33.90;94764.91;4958881;28;20027;-73
2022/03/26 04:16:12;;;;;;;10.35;5.68;;;;;;;6.83;33.82;94767.28;4960284;28;20497;-73
2022/03/26 04:18:38;;;;;;;9.70;5.50;;;;;;;6.64;34.14;94761.75;4961793;28;20073;-75
2022/03/26 04:21:04;;;;;;;9.85;6.72;;;;;;;6.57;34.43;94777.06;4969428;28;20268;-74
2022/03/26 04:23:40;;;;;;;8.98;5.95;;;;;;;6.39;34.86;94722.09;4964897;28;20592;-72
2022/03/26 04:26:06;;;;;;;8.95;5.47;;;;;;;6.74;34.71;94768.88;4977663;28;20527;-74
2022/03/26 04:28:32;;;;;;;14.35;5.68;;;;;;;6.41;34.53;94730.53;4962348;28;20428;-74
2022/03/26 04:30:58;;;;;;;10.50;6.10;;;;;;;6.54;34.62;94761.75;4956275;28;20034;-74
2022/03/26 04:33:25;;;;;;;9.50;5.43;;;;;;;6.57;34.95;94771.78;4965148;28;20057;-72
2022/03/26 04:35:50;;;;;;;11.05;5.40;;;;;;;6.70;34.98;94781.81;4964244;28;20350;-74
2022/03/26 04:38:16;;;;;;;14.15;5.45;;;;;;;6.53;35.30;94791.09;4959942;28;20051;-74
2022/03/26 04:40:41;;;;;;;12.23;5.65;;;;;;;6.38;35.37;94766.22;4964164;28;20038;-73
2022/03/26 04:43:10;;;;;;;12.88;6.25;;;;;;;6.54;35.14;94793.47;4966642;28;20504;-73
2022/03/26 04:45:36;;;;;;;13.75;6.70;;;;;;;6.46;35.06;94783.41;4968636;28;20034;-75
2022/03/26 04:48:01;;;;;;;13.25;6.57;;;;;;;6.12;35.20;94732.09;4965704;28;20041;-72
2022/03/26 04:50:26;;;;;;;18.42;6.22;;;;;;;6.53;35.12;94789.22;4960488;28;20070;-73
2022/03/26 04:52:52;;;;;;;12.73;7.38;;;;;;;6.52;34.91;94787.63;4966043;28;20027;-74
2022/03/26 04:55:18;;;;;;;14.93;7.18;;;;;;;6.73;34.43;94797.19;4975596;28;20042;-74
2022/03/26 04:57:47;;;;;;;13.13;6.43;;;;;;;6.64;34.29;94774.97;4981875;28;20591;-74
2022/03/26 05:00:15;;;;;;;12.35;6.55;;;;;;;6.79;35.01;94806.69;4979341;28;20031;-74
2022/03/26 05:02:41;;;;;;;9.30;6.00;;;;;;;6.81;34.94;94804.56;4966312;28;20065;-74
2022/03/26 05:05:08;;;;;;;16.52;6.82;;;;;;;6.72;35.27;94806.16;4964876;28;20489;-75
2022/03/26 05:07:46;;;;;;;14.50;8.20;;;;;;;6.91;34.98;94802.97;4963192;28;20050;-74
2022/03/26 05:10:24;;;;;;;13.80;7.93;;;;;;;7.03;34.76;94806.16;4967396;28;20683;-75
2022/03/26 05:12:51;;;;;;;11.35;7.00;;;;;;;7.11;34.61;94813.53;4987189;28;20101;-74
2022/03/26 05:15:20;;;;;;;24.65;9.68;;;;;;;7.22;34.44;94809.81;4964939;28;20118;-74
2022/03/26 05:17:45;;;;;;;15.93;8.45;;;;;;;7.21;34.21;94800.28;4968558;28;20402;-74
2022/03/26 05:20:12;;;;;;;17.02;8.82;;;;;;;7.39;34.22;94817.44;4967232;28;20027;-74
2022/03/26 05:22:39;;;;;;;15.25;8.85;;;;;;;7.33;33.92;94786.78;4966142;28;20727;-74
2022/03/26 05:25:06;;;;;;;25.63;11.45;;;;;;;7.47;33.90;94812.41;4962798;28;20050;-74
2022/03/26 05:27:32;;;;;;;17.10;9.70;;;;;;;7.45;33.85;94806.59;4965310;28;20030;-74
2022/03/26 05:29:57;;;;;;;19.85;10.52;;;;;;;7.48;33.83;94784.91;4964518;28;20084;-74
2022/03/26 05:32:23;;;;;;;24.48;10.13;;;;;;;7.53;33.83;94794.66;4966789;28;20069;-74
2022/03/26 05:34:50;;;;;;;20.92;12.02;;;;;;;7.49;34.10;94804.97;4966395;28;20049;-74
2022/03/26 05:37:16;;;;;;;19.70;10.20;;;;;;;7.38;34.44;94798.16;4961107;28;20043;-73
2022/03/26 05:39:42;;;;;;;16.90;10.60;;;;;;;7.49;34.37;94818.22;4967387;28;20069;-72
2022/03/26 05:42:08;;;;;;;17.65;9.98;;;;;;;7.25;34.38;94794.19;4965134;28;20031;-75
2022/03/26 05:44:33;;;;;;;20.75;10.75;;;;;;;7.28;34.13;94820.16;4964433;28;20398;-74
2022/03/26 05:47:00;;;;;;;24.33;10.23;;;;;;;7.28;34.26;94816.69;4965568;28;20461;-74
2022/03/26 05:49:26;;;;;;;47.28;15.52;;;;;;;7.13;34.29;94811.44;4966934;28;20497;-73
2022/03/26 05:51:52;;;;;;;22.58;12.63;;;;;;;7.19;34.29;94820.94;4967097;28;20047;-74
2022/03/26 05:54:17;;;;;;;20.40;11.73;;;;;;;7.00;34.32;94820.69;4968251;28;20081;-74
2022/03/26 05:56:51;;;;;;;20.20;11.57;;;;;;;7.07;34.15;94805.34;4964054;28;20038;-73
2022/03/26 05:59:18;;;;;;;21.08;11.43;;;;;;;7.13;34.94;94837.88;4967071;28;20046;-74
2022/03/26 06:01:43;;;;;;;28.00;13.80;;;;;;;7.49;34.25;94839.41;4966479;28;20038;-74
2022/03/26 06:04:09;;;;;;;27.35;13.20;;;;;;;7.55;33.66;94827.75;4964819;28;20050;-74
2022/03/26 06:06:34;;;;;;;21.08;11.80;;;;;;;7.31;33.88;94813.50;4978205;28;20045;-75
2022/03/26 06:09:00;;;;;;;19.75;12.77;;;;;;;7.33;34.02;94810.59;4967102;28;20051;-74
2022/03/26 06:11:26;;;;;;;23.10;12.95;;;;;;;7.48;34.31;94821.16;4963003;28;20514;-74
2022/03/26 06:13:52;;;;;;;28.55;13.00;;;;;;;7.62;34.51;94836.22;4962944;28;20339;-74
2022/03/26 06:16:17;;;;;;;25.70;12.13;;;;;;;7.54;33.71;94820.84;4996264;28;20506;-75
2022/03/26 06:18:43;;;;;;;21.85;12.50;;;;;;;7.47;34.72;94846.84;4969213;28;20061;-75
2022/03/26 06:21:08;;;;;;;25.40;12.63;;;;;;;6.79;35.74;94843.72;4965727;28;20425;-74
2022/03/26 06:23:34;;;;;;;20.35;11.98;;;;;;;6.99;35.76;94828.91;4962605;28;20050;-74
2022/03/26 06:26:00;;;;;;;27.95;12.35;;;;;;;7.66;34.55;94847.84;4964286;28;20896;-75
2022/03/26 06:28:25;;;;;;;20.45;12.63;;;;;;;7.85;33.92;94849.94;4963893;28;20054;-75
2022/03/26 06:30:52;;;;;;;26.38;13.00;;;;;;;8.01;34.11;94846.16;4992752;28;20113;-73
2022/03/26 06:33:18;;;;;;;18.35;12.00;;;;;;;8.02;33.63;94845.88;4965026;28;20552;-73
2022/03/26 06:35:45;;;;;;;27.50;13.65;;;;;;;8.20;33.65;94847.13;4965572;28;20096;-73
2022/03/26 06:38:11;;;;;;;24.45;13.55;;;;;;;7.73;34.10;94838.84;4977981;28;20049;-74
2022/03/26 06:40:38;;;;;;;22.33;12.80;;;;;;;7.95;33.66;94840.09;4963822;28;20038;-73
2022/03/26 06:43:06;;;;;;;24.73;12.32;;;;;;;8.29;33.65;94858.75;4964612;28;20034;-73
2022/03/26 06:45:32;;;;;;;25.52;13.10;;;;;;;8.27;33.53;94863.50;4962646;28;20065;-74
2022/03/26 06:47:57;;;;;;;38.35;16.20;;;;;;;8.52;33.25;94852.78;4963733;28;20113;-74
2022/03/26 06:50:24;;;;;;;24.65;13.57;;;;;;;8.46;33.06;94861.81;4978070;28;20046;-74
2022/03/26 06:52:50;;;;;;;44.88;19.20;;;;;;;8.78;32.92;94860.56;4965114;28;20043;-75
2022/03/26 06:55:16;;;;;;;31.90;16.10;;;;;;;8.78;33.08;94861.38;4959679;28;20042;-73
2022/03/26 06:57:42;;;;;;;25.65;13.20;;;;;;;8.77;32.53;94843.88;4965118;28;20042;-74
2022/03/26 07:00:09;;;;;;;26.85;13.00;;;;;;;8.85;32.98;94861.84;4962904;28;20026;-74
2022/03/26 07:02:36;;;;;;;22.63;13.63;;;;;;;8.17;33.68;94876.03;4963554;28;20081;-74
2022/03/26 07:05:02;;;;;;;24.17;14.48;;;;;;;8.88;32.37;94876.44;4962539;28;20508;-73
2022/03/26 07:07:28;;;;;;;33.05;14.15;;;;;;;8.52;32.89;94866.03;4962369;28;20221;-75
2022/03/26 07:09:57;;;;;;;26.20;14.88;;;;;;;8.85;31.84;94859.19;4983115;28;20581;-72
2022/03/26 07:12:23;;;;;;;23.17;12.23;;;;;;;9.10;31.86;94881.28;4962638;28;20162;-75
2022/03/26 07:14:48;;;;;;;25.40;12.98;;;;;;;9.06;31.60;94859.81;4966444;28;20096;-73
2022/03/26 07:17:16;;;;;;;59.38;16.85;;;;;;;9.03;31.65;94849.78;4960287;28;20923;-74
2022/03/26 07:19:42;;;;;;;28.55;13.18;;;;;;;8.27;32.96;94874.13;4963506;28;20089;-74
2022/03/26 07:22:08;;;;;;;25.67;13.45;;;;;;;8.53;32.98;94886.19;4956093;28;20042;-74
2022/03/26 07:24:34;;;;;;;27.60;14.40;;;;;;;9.05;32.33;94890.09;4959342;28;20101;-74
2022/03/26 07:27:00;;;;;;;25.95;12.90;;;;;;;8.99;31.82;94851.41;4960717;28;20441;-74
2022/03/26 07:29:26;;;;;;;34.95;13.88;;;;;;;9.27;31.82;94857.84;4966093;28;20049;-73
2022/03/26 07:31:51;;;;;;;27.45;13.60;;;;;;;9.53;31.42;94879.66;4962019;28;20039;-74
2022/03/26 07:34:17;;;;;;;29.55;14.15;;;;;;;9.15;31.83;94886.59;4962561;28;20046;-75
2022/03/26 07:36:44;;;;;;;30.75;13.75;;;;;;;8.36;33.00;94872.50;4968644;28;20644;-74
2022/03/26 07:39:10;;;;;;;26.75;12.90;;;;;;;8.33;33.14;94878.34;4957961;28;20053;-74
2022/03/26 07:41:36;;;;;;;20.88;13.70;;;;;;;7.86;33.67;94892.03;4961577;28;20564;-74
2022/03/26 07:44:02;;;;;;;25.02;14.82;;;;;;;8.05;33.24;94897.53;4962841;28;20185;-74
2022/03/26 07:46:28;;;;;;;28.60;13.38;;;;;;;8.33;33.19;94888.94;4964137;28;20619;-73
2022/03/26 07:48:54;;;;;;;20.80;11.75;;;;;;;8.33;32.95;94902.19;4965542;28;20043;-74
2022/03/26 07:51:19;;;;;;;26.08;13.40;;;;;;;8.65;32.82;94864.66;4969398;28;20034;-74
2022/03/26 07:53:45;;;;;;;25.83;12.73;;;;;;;8.94;32.08;94893.91;4963576;28;20037;-74
2022/03/26 07:56:11;;;;;;;26.00;13.68;;;;;;;8.79;32.22;94892.13;4959017;28;20030;-75
2022/03/26 07:58:37;;;;;;;97.43;40.40;;;;;;;9.51;31.44;94895.06;4960983;28;20034;-74
2022/03/26 08:01:02;;;;;;;27.55;14.20;;;;;;;9.16;31.85;94886.31;4967768;28;20050;-75
2022/03/26 08:03:28;;;;;;;21.85;13.73;;;;;;;8.37;32.68;94879.38;4960562;28;20445;-74
2022/03/26 08:05:53;;;;;;;24.15;12.70;;;;;;;8.99;31.85;94867.31;4961517;28;20553;-74
2022/03/26 08:08:20;;;;;;;21.02;11.18;;;;;;;8.83;31.74;94887.88;4956292;28;20055;-75
2022/03/26 08:10:46;;;;;;;20.67;11.02;;;;;;;8.92;31.72;94869.50;4967221;28;20089;-74
2022/03/26 08:13:11;;;;;;;24.00;14.80;;;;;;;9.30;30.51;94881.94;4967134;28;20034;-74
2022/03/26 08:15:37;;;;;;;239.68;85.30;;;;;;;9.38;31.18;94878.72;4962177;28;20121;-74
2022/03/26 08:18:03;;;;;;;76.03;34.72;;;;;;;9.82;30.88;94877.75;4967772;28;20357;-75
2022/03/26 08:20:30;;;;;;;35.05;17.23;;;;;;;9.64;30.83;94892.53;4970739;28;20421;-74
2022/03/26 08:22:57;;;;;;;380.85;129.70;;;;;;;9.88;30.25;94882.72;4968934;28;20451;-73
2022/03/26 08:28:08;;;;;;;184.05;63.55;;;;;;;9.75;30.19;94877.28;4967377;28;20410;-74
2022/03/26 08:30:35;;;;;;;25.35;14.55;;;;;;;9.33;31.71;94885.94;4968783;28;20492;-74
2022/03/26 08:33:01;;;;;;;25.67;14.30;;;;;;;9.78;30.83;94880.16;4967028;28;20714;-74
2022/03/26 08:35:40;;;;;;;30.33;15.45;;;;;;;9.32;30.77;94879.81;4969326;28;20042;-74
2022/03/26 08:38:07;;;;;;;31.83;15.02;;;;;;;9.06;31.21;94874.97;4960428;28;20151;-76
2022/03/26 08:40:32;;;;;;;23.80;14.82;;;;;;;8.90;31.20;94866.34;4968690;28;20042;-74
2022/03/26 08:43:01;;;;;;;23.98;13.20;;;;;;;9.25;30.98;94857.31;4961714;28;20107;-74
2022/03/26 08:45:28;;;;;;;27.85;14.15;;;;;;;9.82;30.56;94875.09;4965413;28;20907;-73
2022/03/26 08:47:55;;;;;;;22.88;12.40;;;;;;;9.81;30.92;94860.22;4964647;28;20501;-74
2022/03/26 08:50:21;;;;;;;21.13;12.27;;;;;;;9.96;30.20;94856.59;4960218;28;20080;-73
2022/03/26 08:52:50;;;;;;;25.52;12.55;;;;;;;9.79;30.13;94868.47;4970447;28;20031;-74
2022/03/26 08:55:16;;;;;;;24.27;12.45;;;;;;;10.11;29.81;94853.78;4962771;28;20061;-74
2022/03/26 08:57:42;;;;;;;24.00;13.27;;;;;;;10.43;29.15;94856.56;4962068;28;20564;-74
2022/03/26 09:00:10;;;;;;;53.78;24.88;;;;;;;10.30;29.52;94858.03;4968676;28;20030;-74
2022/03/26 09:02:37;;;;;;;44.60;17.17;;;;;;;10.52;29.36;94864.69;4968275;28;20039;-74
2022/03/26 09:05:04;;;;;;;26.65;15.63;;;;;;;10.48;28.88;94831.78;4955907;28;20050;-73
2022/03/26 09:07:30;;;;;;;29.67;13.20;;;;;;;10.83;28.41;94835.78;4963907;28;20096;-73
2022/03/26 09:09:55;;;;;;;24.27;12.68;;;;;;;11.20;28.04;94848.28;4954667;28;20429;-73
2022/03/26 09:12:21;;;;;;;38.65;22.50;;;;;;;10.76;28.60;94838.81;4974746;28;20393;-74
2022/03/26 09:14:46;;;;;;;21.70;13.15;;;;;;;10.99;27.82;94842.47;4962823;28;20709;-75
2022/03/26 09:17:12;;;;;;;22.30;12.32;;;;;;;10.85;28.62;94841.63;4961908;28;20121;-75
2022/03/26 09:19:37;;;;;;;33.22;16.95;;;;;;;10.63;28.69;94820.91;4964637;28;20054;-74
2022/03/26 09:22:03;;;;;;;29.58;17.45;;;;;;;10.52;29.23;94827.44;4959117;28;20042;-74
2022/03/26 09:24:28;;;;;;;20.23;11.98;;;;;;;9.86;29.32;94830.94;4967338;28;20038;-74
2022/03/26 09:26:54;;;;;;;24.85;12.82;;;;;;;9.93;29.61;94819.97;4965145;28;20489;-74
2022/03/26 09:29:20;;;;;;;28.58;12.20;;;;;;;9.96;29.65;94820.19;4961240;28;20044;-75
2022/03/26 09:31:46;;;;;;;21.48;13.40;;;;;;;10.30;29.63;94841.28;4966402;28;20073;-73
2022/03/26 09:34:12;;;;;;;24.02;12.40;;;;;;;10.12;29.06;94804.84;4964184;28;20517;-73
2022/03/26 09:36:37;;;;;;;20.30;12.40;;;;;;;10.00;29.55;94821.19;4963709;28;20466;-74
2022/03/26 09:39:03;;;;;;;24.15;12.05;;;;;;;10.37;29.31;94825.78;4953334;28;20057;-73
2022/03/26 09:41:31;;;;;;;24.92;11.70;;;;;;;10.97;29.12;94818.78;4954760;28;20050;-73
2022/03/26 09:43:57;;;;;;;18.30;10.88;;;;;;;11.11;28.76;94798.31;4966173;28;20413;-75
2022/03/26 09:46:23;;;;;;;19.88;11.60;;;;;;;11.23;27.97;94803.19;4962070;28;20054;-74
2022/03/26 09:48:49;;;;;;;24.25;13.10;;;;;;;11.38;27.87;94796.81;4966047;28;20524;-74
2022/03/26 09:51:20;;;;;;;31.63;14.40;;;;;;;11.32;27.97;94801.44;4968571;28;20035;-75
2022/03/26 09:53:49;;;;;;;19.10;11.82;;;;;;;11.11;28.52;94798.31;4956722;28;20042;-74
2022/03/26 09:56:16;;;;;;;18.83;11.52;;;;;;;10.97;28.65;94802.81;4967631;28;20038;-74
2022/03/26 09:58:41;;;;;;;19.85;11.43;;;;;;;10.56;28.88;94817.84;4957091;28;20121;-74
2022/03/26 10:01:07;;;;;;;101.90;44.00;;;;;;;11.09;28.72;94803.16;4963295;28;20414;-74
2022/03/26 10:03:33;;;;;;;152.23;68.85;;;;;;;11.47;28.80;94795.03;4960271;28;20026;-75
2022/03/26 10:06:03;;;;;;;219.52;98.18;;;;;;;11.29;28.71;94778.06;4961505;28;20609;-75
2022/03/26 10:08:29;;;;;;;52.45;23.38;;;;;;;11.58;28.28;94785.81;4961073;28;20054;-75
2022/03/26 10:10:55;;;;;;;18.10;10.30;;;;;;;11.65;28.40;94790.75;4951051;28;20505;-72
2022/03/26 10:13:38;;;;;;;123.70;50.42;;;;;;;11.64;28.84;94781.94;4977259;28;20038;-73
2022/03/26 10:16:03;;;;;;;28.05;11.60;;;;;;;11.83;28.10;94787.22;4956857;28;20054;-75
2022/03/26 10:18:37;;;;;;;21.98;10.85;;;;;;;11.61;28.11;94774.56;4963575;28;20806;-73
2022/03/26 10:21:06;;;;;;;17.95;10.50;;;;;;;11.77;28.21;94783.06;4960322;28;20128;-74
2022/03/26 10:23:35;;;;;;;20.40;8.60;;;;;;;11.93;28.15;94785.09;4963112;28;20574;-72
2022/03/26 10:26:18;;;;;;;14.48;7.30;;;;;;;11.86;27.87;94766.06;4968500;28;20100;-73
2022/03/26 10:28:50;;;;;;;13.55;7.13;;;;;;;12.00;28.51;94772.19;4965072;28;20040;-74
2022/03/26 10:34:08;;;;;;;16.05;10.85;;;;;;;11.67;28.64;94773.38;4960521;28;20057;-76
2022/03/26 10:36:38;;;;;;;19.13;12.55;;;;;;;11.68;28.51;94758.97;4961815;28;20022;-75
2022/03/26 10:39:05;;;;;;;12.25;6.93;;;;;;;12.11;28.42;94762.09;4965008;28;20034;-75
2022/03/26 10:41:36;;;;;;;22.10;16.35;;;;;;;12.31;28.58;94745.66;4962076;28;20468;-74
2022/03/26 10:44:09;;;;;;;13.75;9.82;;;;;;;12.35;27.40;94754.63;4981377;28;20881;-76
2022/03/26 10:46:48;;;;;;;16.98;7.88;;;;;;;12.27;27.83;94760.66;4961093;28;20053;-76
2022/03/26 10:49:40;;;;;;;17.58;7.97;;;;;;;12.34;27.97;94729.03;4966436;28;20050;-75
2022/03/26 10:52:17;;;;;;;37.55;26.77;;;;;;;12.32;27.60;94754.44;4956558;28;20046;-76
2022/03/26 10:54:43;;;;;;;26.38;23.63;;;;;;;12.17;27.78;94757.44;4964196;28;20048;-76
2022/03/26 10:57:10;;;;;;;14.73;7.88;;;;;;;12.14;28.14;94723.34;4962009;28;20035;-75
2022/03/26 10:59:36;;;;;;;17.15;7.28;;;;;;;12.45;28.19;94750.94;4958915;28;20050;-75
2022/03/26 11:02:01;;;;;;;11.80;6.10;;;;;;;12.66;27.08;94737.94;4964847;28;20073;-75
2022/03/26 11:04:34;;;;;;;10.73;6.00;;;;;;;12.97;26.91;94713.94;4960950;28;20042;-74
2022/03/26 11:07:02;;;;;;;31.30;18.55;;;;;;;12.45;26.49;94676.22;4959903;28;20733;-75
2022/03/26 11:09:28;;;;;;;12.88;6.72;;;;;;;13.13;26.05;94720.47;4962641;28;20054;-75
2022/03/26 11:11:55;;;;;;;13.73;5.97;;;;;;;13.12;25.63;94700.19;4955439;28;20030;-75
2022/03/26 11:14:30;;;;;;;9.00;5.53;;;;;;;13.23;25.84;94720.22;4959562;28;20038;-75
2022/03/26 11:17:22;;;;;;;19.25;8.63;;;;;;;13.40;25.70;94708.81;4958133;28;20425;-75
2022/03/26 11:20:06;;;;;;;12.20;5.78;;;;;;;13.33;26.00;94703.91;4980412;28;20046;-75
2022/03/26 11:23:05;;;;;;;11.95;5.57;;;;;;;13.62;25.91;94709.56;4959373;28;20536;-75
2022/03/26 11:25:54;;;;;;;8.13;4.22;;;;;;;13.74;24.79;94712.41;4967686;28;20097;-76
2022/03/26 11:28:58;;;;;;;9.52;5.75;;;;;;;13.72;25.47;94709.28;5001565;28;20121;-74
2022/03/26 11:31:35;;;;;;;10.63;4.72;;;;;;;13.90;25.77;94703.94;4947459;28;20060;-75
2022/03/26 11:34:03;;;;;;;10.68;4.43;;;;;;;13.74;25.72;94674.97;4957216;28;20089;-74